Time;durP1;ratioP1;P1;durP2;ratioP2;P2;SDS_P1;SDS_P2;PMS_P1;PMS_P2;Temp;Humidity;BMP_temperature;BMP_pressure;BME280_temperature;BME280_humidity;BME280_pressure;Samples;Min_cycle;Max_cycle;Signal;HPM_P1;HPM_P2
2023/06/01 00:00:44;;;;;;;0.20;0.20;;;;;;;;;;5101804;28;20522;-49
2023/06/01 00:03:09;;;;;;;0.20;0.20;;;;;;;;;;5092743;28;20073;-51
2023/06/01 00:05:35;;;;;;;0.20;0.20;;;;;;;;;;5092951;28;20144;-49
2023/06/01 00:08:04;;;;;;;0.20;0.20;;;;;;;;;;5113045;28;20053;-51
2023/06/01 00:10:29;;;;;;;;;;;;;;;;;;5104133;28;20472;-51
2023/06/01 00:12:55;;;;;;;0.20;0.20;;;;;;;;;;5092479;28;19919;-50
2023/06/01 00:15:20;;;;;;;0.20;0.20;;;;;;;;;;5092709;28;20055;-52
2023/06/01 00:17:46;;;;;;;0.20;0.20;;;;;;;;;;5110460;28;20129;-52
2023/06/01 00:20:12;;;;;;;0.20;0.20;;;;;;;;;;5105920;28;20040;-51
2023/06/01 00:22:38;;;;;;;0.20;0.20;;;;;;;;;;5092227;28;20044;-51
2023/06/01 00:25:06;;;;;;;0.20;0.20;;;;;;;;;;5092642;28;20102;-50
2023/06/01 00:27:31;;;;;;;0.10;0.10;;;;;;;;;;5107978;28;20043;-51
2023/06/01 00:29:56;;;;;;;0.20;0.20;;;;;;;;;;5117721;27;20653;-52
2023/06/01 00:32:22;;;;;;;0.13;0.13;;;;;;;;;;5114258;27;20207;-49
2023/06/01 00:34:47;;;;;;;0.20;0.20;;;;;;;;;;5116527;27;20047;-53
2023/06/01 00:37:13;;;;;;;0.10;0.10;;;;;;;;;;5115868;27;20065;-51
2023/06/01 00:39:39;;;;;;;0.20;0.20;;;;;;;;;;5097724;28;20039;-52
2023/06/01 00:42:05;;;;;;;0.17;0.17;;;;;;;;;;5135093;27;20157;-48
2023/06/01 00:44:30;;;;;;;0.20;0.20;;;;;;;;;;5136539;27;20159;-51
2023/06/01 00:46:56;;;;;;;0.20;0.20;;;;;;;;;;5111511;27;20055;-52
2023/06/01 00:49:22;;;;;;;0.17;0.17;;;;;;;;;;5126567;27;20046;-52
2023/06/01 00:51:47;;;;;;;0.10;0.10;;;;;;;;;;5115989;27;20136;-49
2023/06/01 00:54:13;;;;;;;0.20;0.20;;;;;;;;;;5116006;28;20047;-50
2023/06/01 00:56:38;;;;;;;0.10;0.10;;;;;;;;;;5115758;28;20041;-50
2023/06/01 00:59:04;;;;;;;0.10;0.10;;;;;;;;;;5116103;28;20051;-48
2023/06/01 01:01:31;;;;;;;0.20;0.20;;;;;;;;;;5115861;28;20451;-48
2023/06/01 01:03:57;;;;;;;0.20;0.20;;;;;;;;;;5115310;28;20206;-52
2023/06/01 01:06:45;;;;;;;0.20;0.20;;;;;;;;;;5115499;28;20051;-48
2023/06/01 01:09:20;;;;;;;0.20;0.20;;;;;;;;;;5101394;28;20047;-49
2023/06/01 01:11:49;;;;;;;0.20;0.20;;;;;;;;;;5115633;27;20700;-51
2023/06/01 01:14:17;;;;;;;0.20;0.20;;;;;;;;;;5115468;28;20081;-52
2023/06/01 01:16:46;;;;;;;0.10;0.10;;;;;;;;;;5115291;28;20074;-51
2023/06/01 01:19:34;;;;;;;0.20;0.20;;;;;;;;;;5097787;28;20042;-49
2023/06/01 01:22:14;;;;;;;0.20;0.20;;;;;;;;;;5080446;28;20508;-51
2023/06/01 01:24:49;;;;;;;0.20;0.20;;;;;;;;;;5095092;28;20047;-50
2023/06/01 01:27:37;;;;;;;0.20;0.20;;;;;;;;;;5105723;28;20051;-52
2023/06/01 01:30:06;;;;;;;0.20;0.20;;;;;;;;;;5100682;28;20198;-48
2023/06/01 01:32:32;;;;;;;0.20;0.20;;;;;;;;;;5111296;28;20054;-52
2023/06/01 01:34:58;;;;;;;0.10;0.10;;;;;;;;;;5115718;27;20438;-50
2023/06/01 01:37:23;;;;;;;0.20;0.20;;;;;;;;;;5114216;27;20074;-49
2023/06/01 01:39:49;;;;;;;0.20;0.20;;;;;;;;;;5115157;27;20518;-52
2023/06/01 01:42:15;;;;;;;0.20;0.20;;;;;;;;;;5103924;28;20050;-50
2023/06/01 01:44:40;;;;;;;0.20;0.20;;;;;;;;;;5094704;28;20412;-50
2023/06/01 01:47:26;;;;;;;0.20;0.20;;;;;;;;;;5103910;28;20123;-51
2023/06/01 01:49:55;;;;;;;0.20;0.20;;;;;;;;;;5100401;27;20086;-52
2023/06/01 01:52:25;;;;;;;0.20;0.20;;;;;;;;;;5117338;27;20065;-52
2023/06/01 01:54:51;;;;;;;0.20;0.20;;;;;;;;;;5115338;27;20054;-50
2023/06/01 01:57:17;;;;;;;0.20;0.20;;;;;;;;;;5115085;27;20063;-52
2023/06/01 01:59:44;;;;;;;0.20;0.20;;;;;;;;;;5112525;28;20095;-51
2023/06/01 02:02:10;;;;;;;0.20;0.20;;;;;;;;;;5094817;28;20498;-50
2023/06/01 02:04:43;;;;;;;0.20;0.20;;;;;;;;;;5094450;28;20055;-51
2023/06/01 02:07:09;;;;;;;0.20;0.20;;;;;;;;;;5103062;28;20415;-48
2023/06/01 02:09:35;;;;;;;0.20;0.20;;;;;;;;;;5095729;28;20047;-52
2023/06/01 02:12:01;;;;;;;0.20;0.20;;;;;;;;;;5115169;28;20070;-52
2023/06/01 02:14:27;;;;;;;0.20;0.20;;;;;;;;;;5115053;28;20403;-52
2023/06/01 02:16:53;;;;;;;0.20;0.20;;;;;;;;;;5114410;28;20053;-50
2023/06/01 02:19:19;;;;;;;0.20;0.20;;;;;;;;;;5115263;28;20499;-51
2023/06/01 02:21:44;;;;;;;0.20;0.20;;;;;;;;;;5114499;28;20099;-49
2023/06/01 02:24:11;;;;;;;0.20;0.20;;;;;;;;;;5114486;28;20134;-49
2023/06/01 02:26:36;;;;;;;0.20;0.20;;;;;;;;;;5114588;28;20043;-51
2023/06/01 02:29:04;;;;;;;0.20;0.20;;;;;;;;;;5114592;28;20788;-52
2023/06/01 02:31:30;;;;;;;;;;;;;;;;;;5114926;28;20104;-53
2023/06/01 02:33:55;;;;;;;0.20;0.20;;;;;;;;;;5114859;27;19974;-53
2023/06/01 02:36:21;;;;;;;0.20;0.20;;;;;;;;;;5114653;27;20051;-52
2023/06/01 02:38:47;;;;;;;0.20;0.20;;;;;;;;;;5113648;27;20640;-49
2023/06/01 02:41:12;;;;;;;0.20;0.20;;;;;;;;;;5116110;27;20044;-51
2023/06/01 02:43:38;;;;;;;0.20;0.20;;;;;;;;;;5134133;27;20058;-52
2023/06/01 02:46:04;;;;;;;0.20;0.20;;;;;;;;;;5135311;27;20055;-49
2023/06/01 02:48:30;;;;;;;0.20;0.20;;;;;;;;;;5116004;27;20039;-51
2023/06/01 02:50:56;;;;;;;0.20;0.20;;;;;;;;;;5101420;28;20101;-51
2023/06/01 02:53:21;;;;;;;0.20;0.20;;;;;;;;;;5125752;27;20035;-49
2023/06/01 02:55:47;;;;;;;0.20;0.20;;;;;;;;;;5134691;27;20046;-50
2023/06/01 02:58:16;;;;;;;0.20;0.20;;;;;;;;;;5118149;27;20051;-49
2023/06/01 03:00:42;;;;;;;0.20;0.20;;;;;;;;;;5113712;28;20047;-50
2023/06/01 03:03:07;;;;;;;0.20;0.20;;;;;;;;;;5113769;28;20058;-51
2023/06/01 03:05:35;;;;;;;0.20;0.20;;;;;;;;;;5114237;28;20079;-48
2023/06/01 03:08:01;;;;;;;0.20;0.20;;;;;;;;;;5113386;28;20050;-49
2023/06/01 03:10:26;;;;;;;0.20;0.20;;;;;;;;;;5113762;28;20150;-50
2023/06/01 03:12:52;;;;;;;0.20;0.20;;;;;;;;;;5112914;28;20058;-48
2023/06/01 03:15:17;;;;;;;0.20;0.20;;;;;;;;;;5114235;28;20500;-52
2023/06/01 03:17:43;;;;;;;0.20;0.20;;;;;;;;;;5113664;28;20062;-49
2023/06/01 03:20:14;;;;;;;0.20;0.20;;;;;;;;;;5113963;28;20274;-50
2023/06/01 03:22:41;;;;;;;0.20;0.20;;;;;;;;;;5113876;28;20100;-52
2023/06/01 03:25:07;;;;;;;0.20;0.20;;;;;;;;;;5113741;28;20403;-50
2023/06/01 03:27:32;;;;;;;0.20;0.20;;;;;;;;;;5113414;28;20490;-52
2023/06/01 03:29:58;;;;;;;0.20;0.20;;;;;;;;;;5095338;28;20191;-47
2023/06/01 03:32:23;;;;;;;0.20;0.20;;;;;;;;;;5113653;28;20066;-52
2023/06/01 03:34:49;;;;;;;0.20;0.20;;;;;;;;;;5114317;27;20115;-49
2023/06/01 03:37:15;;;;;;;0.20;0.20;;;;;;;;;;5113181;27;20039;-52
2023/06/01 03:39:40;;;;;;;0.20;0.20;;;;;;;;;;5113387;28;20058;-52
2023/06/01 03:42:07;;;;;;;0.20;0.20;;;;;;;;;;5113734;28;20110;-51
2023/06/01 03:44:32;;;;;;;0.20;0.20;;;;;;;;;;5113365;28;20097;-50
2023/06/01 03:46:58;;;;;;;0.20;0.20;;;;;;;;;;5113269;28;20457;-50
2023/06/01 03:49:24;;;;;;;0.20;0.20;;;;;;;;;;5113628;28;20549;-52
2023/06/01 03:51:50;;;;;;;0.20;0.20;;;;;;;;;;5113241;28;20062;-52
2023/06/01 03:54:15;;;;;;;0.20;0.20;;;;;;;;;;5119296;27;20357;-51
2023/06/01 03:56:41;;;;;;;0.20;0.20;;;;;;;;;;5133778;27;20483;-49
2023/06/01 03:59:07;;;;;;;0.20;0.20;;;;;;;;;;5113265;28;20103;-52
2023/06/01 04:01:33;;;;;;;0.20;0.20;;;;;;;;;;5113495;28;20534;-52
2023/06/01 04:03:59;;;;;;;0.20;0.20;;;;;;;;;;5113264;28;20039;-52
2023/06/01 04:06:29;;;;;;;0.20;0.20;;;;;;;;;;5113698;27;20443;-52
2023/06/01 04:08:58;;;;;;;0.20;0.20;;;;;;;;;;5116849;28;20217;-54
2023/06/01 04:11:23;;;;;;;0.20;0.20;;;;;;;;;;5113023;28;20047;-51
2023/06/01 04:13:49;;;;;;;0.20;0.20;;;;;;;;;;5115750;28;20058;-48
2023/06/01 04:16:15;;;;;;;0.20;0.20;;;;;;;;;;5117473;28;20065;-49
2023/06/01 04:18:41;;;;;;;0.20;0.20;;;;;;;;;;5116774;28;20047;-51
2023/06/01 04:21:08;;;;;;;0.20;0.20;;;;;;;;;;5097127;28;20050;-49
2023/06/01 04:23:34;;;;;;;0.20;0.20;;;;;;;;;;5115829;28;20070;-48
2023/06/01 04:26:00;;;;;;;0.20;0.20;;;;;;;;;;5116483;28;20047;-49
2023/06/01 04:28:26;;;;;;;0.20;0.20;;;;;;;;;;5116708;28;20043;-51
2023/06/01 04:30:52;;;;;;;0.25;0.25;;;;;;;;;;5098033;28;20071;-51
2023/06/01 04:33:18;;;;;;;0.20;0.20;;;;;;;;;;5115930;28;20047;-51
2023/06/01 04:35:44;;;;;;;0.20;0.20;;;;;;;;;;5117825;27;20054;-52
2023/06/01 04:38:10;;;;;;;0.20;0.20;;;;;;;;;;5123136;27;20055;-51
2023/06/01 04:40:36;;;;;;;0.20;0.20;;;;;;;;;;5097326;28;20262;-49
2023/06/01 04:43:02;;;;;;;0.20;0.20;;;;;;;;;;5115736;28;20380;-53
2023/06/01 04:45:33;;;;;;;0.20;0.20;;;;;;;;;;5116203;28;20445;-52
2023/06/01 04:47:59;;;;;;;0.20;0.20;;;;;;;;;;5116098;28;20446;-50
2023/06/01 04:50:26;;;;;;;0.20;0.20;;;;;;;;;;5115981;28;20501;-51
2023/06/01 04:52:51;;;;;;;0.20;0.20;;;;;;;;;;5097296;28;20094;-49
2023/06/01 04:55:17;;;;;;;0.20;0.20;;;;;;;;;;5117131;27;20046;-51
2023/06/01 04:57:43;;;;;;;0.20;0.20;;;;;;;;;;5126635;27;20652;-52
2023/06/01 05:00:12;;;;;;;0.20;0.20;;;;;;;;;;5115005;28;20486;-53
2023/06/01 05:02:38;;;;;;;0.20;0.20;;;;;;;;;;5087169;28;20452;-51
2023/06/01 05:05:05;;;;;;;0.55;0.55;;;;;;;;;;5076808;28;20055;-51
2023/06/01 05:07:31;;;;;;;0.20;0.20;;;;;;;;;;5096484;28;20121;-52
2023/06/01 05:09:57;;;;;;;0.20;0.20;;;;;;;;;;5102471;27;20440;-52
2023/06/01 05:12:22;;;;;;;0.20;0.20;;;;;;;;;;5113426;28;20054;-51
2023/06/01 05:14:48;;;;;;;0.20;0.20;;;;;;;;;;5112840;28;20043;-53
2023/06/01 05:17:13;;;;;;;0.20;0.20;;;;;;;;;;5114665;28;20086;-52
2023/06/01 05:19:39;;;;;;;0.28;0.28;;;;;;;;;;5114248;28;20047;-52
2023/06/01 05:22:05;;;;;;;0.20;0.20;;;;;;;;;;5101348;28;20077;-54
2023/06/01 05:24:30;;;;;;;0.20;0.20;;;;;;;;;;5105247;28;21081;-53
2023/06/01 05:26:56;;;;;;;0.20;0.20;;;;;;;;;;5104067;27;20131;-53
2023/06/01 05:29:21;;;;;;;0.20;0.20;;;;;;;;;;5110156;28;20054;-50
2023/06/01 05:31:49;;;;;;;0.20;0.20;;;;;;;;;;5108604;28;20051;-52
2023/06/01 05:34:15;;;;;;;0.20;0.20;;;;;;;;;;5084134;28;20043;-52
2023/06/01 05:36:40;;;;;;;0.20;0.20;;;;;;;;;;5102192;28;20406;-53
2023/06/01 05:39:06;;;;;;;0.20;0.20;;;;;;;;;;5107732;27;20492;-53
2023/06/01 05:41:31;;;;;;;0.20;0.20;;;;;;;;;;5106747;28;20552;-54
2023/06/01 05:43:57;;;;;;;0.20;0.20;;;;;;;;;;5078268;28;20577;-52
2023/06/01 05:46:24;;;;;;;0.20;0.20;;;;;;;;;;5101718;27;20407;-52
2023/06/01 05:48:50;;;;;;;0.20;0.20;;;;;;;;;;5109693;28;20267;-51
2023/06/01 05:51:17;;;;;;;0.20;0.20;;;;;;;;;;5089470;28;20051;-50
2023/06/01 05:53:42;;;;;;;0.20;0.20;;;;;;;;;;5111985;28;20054;-51
2023/06/01 05:56:08;;;;;;;0.20;0.20;;;;;;;;;;5107490;27;20166;-50
2023/06/01 05:58:33;;;;;;;0.20;0.20;;;;;;;;;;5105481;27;21215;-52
2023/06/01 06:00:59;;;;;;;0.28;0.28;;;;;;;;;;5087999;27;20480;-48
2023/06/01 06:03:25;;;;;;;0.20;0.20;;;;;;;;;;5083138;27;20433;-49
2023/06/01 06:05:51;;;;;;;0.20;0.20;;;;;;;;;;5088994;28;20255;-51
2023/06/01 06:08:16;;;;;;;0.30;0.30;;;;;;;;;;5097615;27;20063;-52
2023/06/01 06:10:42;;;;;;;0.43;0.30;;;;;;;;;;5104830;27;20356;-50
2023/06/01 06:13:07;;;;;;;0.20;0.20;;;;;;;;;;5103646;28;20431;-51
2023/06/01 06:15:33;;;;;;;0.20;0.20;;;;;;;;;;5090786;28;20706;-49
2023/06/01 06:17:58;;;;;;;0.20;0.20;;;;;;;;;;5093678;27;20059;-50
2023/06/01 06:20:24;;;;;;;0.30;0.30;;;;;;;;;;5101631;27;20057;-48
2023/06/01 06:22:51;;;;;;;0.20;0.20;;;;;;;;;;5095800;27;20426;-53
2023/06/01 06:25:16;;;;;;;0.28;0.28;;;;;;;;;;5081033;28;20786;-51
2023/06/01 06:27:42;;;;;;;0.20;0.20;;;;;;;;;;5096787;27;20370;-52
2023/06/01 06:30:07;;;;;;;0.45;0.22;;;;;;;;;;5090478;27;20039;-51
2023/06/01 06:32:34;;;;;;;0.20;0.20;;;;;;;;;;5100618;28;20043;-50
2023/06/01 06:35:00;;;;;;;0.20;0.20;;;;;;;;;;5090227;27;21550;-52
2023/06/01 06:37:26;;;;;;;0.20;0.20;;;;;;;;;;5077406;28;20888;-50
2023/06/01 06:39:51;;;;;;;0.20;0.20;;;;;;;;;;5083957;27;20268;-51
2023/06/01 06:42:17;;;;;;;0.20;0.20;;;;;;;;;;5096052;27;20099;-52
2023/06/01 06:44:42;;;;;;;0.20;0.20;;;;;;;;;;5098719;28;20051;-49
2023/06/01 06:47:08;;;;;;;0.20;0.20;;;;;;;;;;5094808;28;20043;-50
2023/06/01 06:49:33;;;;;;;0.20;0.20;;;;;;;;;;5093669;28;20457;-52
2023/06/01 06:51:59;;;;;;;0.20;0.20;;;;;;;;;;5093553;28;20051;-50
2023/06/01 06:54:25;;;;;;;0.10;0.10;;;;;;;;;;5092242;27;20457;-52
2023/06/01 06:56:50;;;;;;;0.20;0.20;;;;;;;;;;5087945;27;20150;-53
2023/06/01 06:59:16;;;;;;;0.20;0.20;;;;;;;;;;5092449;27;20639;-54
2023/06/01 07:01:41;;;;;;;0.20;0.20;;;;;;;;;;5099321;27;20035;-52
2023/06/01 07:04:08;;;;;;;0.20;0.20;;;;;;;;;;5079846;27;20075;-52
2023/06/01 07:06:34;;;;;;;0.20;0.20;;;;;;;;;;5072114;27;21022;-53
2023/06/01 07:08:59;;;;;;;0.20;0.20;;;;;;;;;;5071906;27;20051;-53
2023/06/01 07:11:26;;;;;;;0.20;0.20;;;;;;;;;;5087239;27;20059;-52
2023/06/01 07:13:52;;;;;;;0.20;0.20;;;;;;;;;;5059855;28;20066;-52
2023/06/01 07:16:18;;;;;;;0.20;0.20;;;;;;;;;;5090184;27;20441;-53
2023/06/01 07:18:43;;;;;;;0.10;0.10;;;;;;;;;;5088489;27;20047;-52
2023/06/01 07:21:09;;;;;;;0.20;0.20;;;;;;;;;;5089715;28;20054;-51
2023/06/01 07:23:35;;;;;;;0.20;0.20;;;;;;;;;;5088229;28;20069;-52
2023/06/01 07:26:01;;;;;;;0.20;0.20;;;;;;;;;;5093647;28;20665;-54
2023/06/01 07:28:27;;;;;;;0.35;0.35;;;;;;;;;;5091699;27;20055;-60
2023/06/01 07:30:52;;;;;;;0.20;0.20;;;;;;;;;;5102582;28;20051;-50
2023/06/01 07:33:18;;;;;;;0.20;0.20;;;;;;;;;;5090297;28;20752;-52
2023/06/01 07:35:45;;;;;;;0.40;0.40;;;;;;;;;;5100139;27;20857;-53
2023/06/01 07:38:11;;;;;;;0.30;0.30;;;;;;;;;;5092376;27;20598;-49
2023/06/01 07:40:37;;;;;;;0.20;0.20;;;;;;;;;;5095077;27;20043;-51
2023/06/01 07:43:02;;;;;;;0.20;0.20;;;;;;;;;;5104492;27;20084;-52
2023/06/01 07:45:28;;;;;;;0.20;0.20;;;;;;;;;;5102298;27;20066;-51
2023/06/01 07:47:53;;;;;;;0.20;0.20;;;;;;;;;;5080772;28;20051;-56
2023/06/01 07:50:19;;;;;;;0.20;0.20;;;;;;;;;;5104895;27;20067;-59
2023/06/01 07:52:45;;;;;;;0.20;0.20;;;;;;;;;;5081690;27;20036;-57
2023/06/01 07:55:10;;;;;;;0.20;0.20;;;;;;;;;;5098136;27;20407;-50
2023/06/01 07:57:36;;;;;;;0.30;0.30;;;;;;;;;;5094981;27;20058;-58
2023/06/01 08:00:07;;;;;;;0.20;0.20;;;;;;;;;;5099478;27;20045;-55
2023/06/01 08:02:33;;;;;;;0.20;0.20;;;;;;;;;;5098208;27;20182;-52
2023/06/01 08:04:59;;;;;;;0.20;0.20;;;;;;;;;;5071780;27;20450;-50
2023/06/01 08:07:27;;;;;;;0.20;0.20;;;;;;;;;;5086662;27;20048;-50
2023/06/01 08:09:53;;;;;;;0.20;0.20;;;;;;;;;;5096786;27;20165;-52
2023/06/01 08:12:19;;;;;;;0.20;0.20;;;;;;;;;;5106484;27;20043;-50
2023/06/01 08:14:44;;;;;;;0.20;0.20;;;;;;;;;;5103645;28;20040;-52
2023/06/01 08:17:11;;;;;;;0.20;0.20;;;;;;;;;;5101935;28;20130;-48
2023/06/01 08:19:37;;;;;;;0.20;0.20;;;;;;;;;;5092882;27;20237;-49
2023/06/01 08:22:05;;;;;;;0.20;0.20;;;;;;;;;;5079650;28;20078;-50
2023/06/01 08:24:34;;;;;;;0.30;0.30;;;;;;;;;;5106498;27;20111;-53
2023/06/01 08:27:00;;;;;;;0.20;0.20;;;;;;;;;;5102979;28;20526;-54
2023/06/01 08:29:27;;;;;;;0.20;0.20;;;;;;;;;;5098857;28;20484;-53
2023/06/01 08:32:08;;;;;;;0.20;0.20;;;;;;;;;;5091455;27;20139;-53
2023/06/01 08:34:33;;;;;;;0.20;0.20;;;;;;;;;;5090040;27;20051;-49
2023/06/01 08:36:59;;;;;;;0.20;0.20;;;;;;;;;;5079144;27;20042;-50
2023/06/01 08:39:25;;;;;;;0.30;0.30;;;;;;;;;;5087548;28;20051;-49
2023/06/01 08:41:58;;;;;;;0.20;0.20;;;;;;;;;;5091567;28;20051;-53
2023/06/01 08:44:26;;;;;;;0.20;0.20;;;;;;;;;;5094689;27;20101;-51
2023/06/01 08:46:52;;;;;;;0.30;0.30;;;;;;;;;;5090614;27;20062;-50
2023/06/01 08:49:19;;;;;;;0.20;0.20;;;;;;;;;;5076259;27;20551;-50
2023/06/01 08:51:46;;;;;;;0.20;0.20;;;;;;;;;;5103962;27;20498;-51
2023/06/01 08:54:11;;;;;;;0.20;0.20;;;;;;;;;;5105508;27;20047;-53
2023/06/01 08:56:41;;;;;;;0.30;0.30;;;;;;;;;;5104186;27;20039;-53
2023/06/01 08:59:09;;;;;;;0.20;0.20;;;;;;;;;;5089558;28;20231;-52
2023/06/01 09:01:35;;;;;;;0.20;0.20;;;;;;;;;;5103940;27;20516;-51
2023/06/01 09:04:01;;;;;;;0.20;0.20;;;;;;;;;;5108823;27;20057;-52
2023/06/01 09:06:26;;;;;;;0.20;0.20;;;;;;;;;;5100085;27;20063;-58
2023/06/01 09:08:52;;;;;;;0.20;0.20;;;;;;;;;;5114789;27;20466;-53
2023/06/01 09:11:18;;;;;;;0.20;0.20;;;;;;;;;;5102136;27;20139;-52
2023/06/01 09:13:44;;;;;;;0.20;0.20;;;;;;;;;;5091175;28;20070;-50
2023/06/01 09:16:10;;;;;;;0.20;0.20;;;;;;;;;;5098948;28;20353;-50
2023/06/01 09:18:36;;;;;;;0.25;0.25;;;;;;;;;;5105131;28;20099;-52
2023/06/01 09:21:16;;;;;;;0.20;0.20;;;;;;;;;;5101912;27;20039;-54
2023/06/01 09:23:43;;;;;;;0.20;0.20;;;;;;;;;;5110677;28;20080;-52
2023/06/01 09:26:10;;;;;;;0.20;0.20;;;;;;;;;;5104120;27;20888;-53
2023/06/01 09:28:55;;;;;;;0.20;0.20;;;;;;;;;;5089820;28;20051;-52
2023/06/01 09:31:41;;;;;;;0.20;0.20;;;;;;;;;;5080568;28;20431;-49
2023/06/01 09:34:08;;;;;;;0.20;0.20;;;;;;;;;;5088871;28;24068;-51
2023/06/01 09:36:34;;;;;;;0.20;0.20;;;;;;;;;;5089673;27;20044;-50
2023/06/01 09:39:00;;;;;;;0.20;0.20;;;;;;;;;;5103429;27;20081;-53
2023/06/01 09:41:31;;;;;;;0.30;0.30;;;;;;;;;;5078086;28;20186;-49
2023/06/01 09:43:57;;;;;;;0.30;0.30;;;;;;;;;;5088450;27;20039;-50
2023/06/01 09:46:22;;;;;;;0.20;0.20;;;;;;;;;;5093297;27;20090;-55
2023/06/01 09:48:49;;;;;;;0.20;0.20;;;;;;;;;;5093025;27;20138;-47
2023/06/01 09:51:25;;;;;;;0.20;0.20;;;;;;;;;;5102489;27;20059;-52
2023/06/01 09:53:50;;;;;;;0.20;0.20;;;;;;;;;;5087406;27;20103;-55
2023/06/01 09:56:16;;;;;;;0.20;0.20;;;;;;;;;;5094815;27;20313;-51
2023/06/01 09:58:43;;;;;;;0.20;0.20;;;;;;;;;;5100320;27;20122;-52
2023/06/01 10:01:09;;;;;;;0.20;0.20;;;;;;;;;;5095451;27;20035;-54
2023/06/01 10:03:36;;;;;;;0.20;0.20;;;;;;;;;;5102798;27;20439;-51
2023/06/01 10:06:03;;;;;;;0.20;0.20;;;;;;;;;;5089106;27;20031;-51
2023/06/01 10:08:29;;;;;;;0.20;0.20;;;;;;;;;;5100324;27;20260;-54
2023/06/01 10:10:55;;;;;;;0.20;0.20;;;;;;;;;;5104118;28;20055;-51
2023/06/01 10:13:22;;;;;;;0.20;0.20;;;;;;;;;;5099507;27;20317;-54
2023/06/01 10:15:48;;;;;;;0.20;0.20;;;;;;;;;;5101544;27;20047;-51
2023/06/01 10:18:15;;;;;;;0.20;0.20;;;;;;;;;;5097593;28;20142;-51
2023/06/01 10:20:40;;;;;;;0.20;0.20;;;;;;;;;;5095176;28;20256;-49
2023/06/01 10:23:06;;;;;;;0.20;0.20;;;;;;;;;;5094870;28;20171;-48
2023/06/01 10:25:43;;;;;;;0.10;0.10;;;;;;;;;;5081035;28;20043;-49
2023/06/01 10:28:10;;;;;;;0.20;0.20;;;;;;;;;;5100707;27;20132;-51
2023/06/01 10:30:35;;;;;;;0.20;0.20;;;;;;;;;;5093280;27;20392;-51
2023/06/01 10:33:01;;;;;;;0.20;0.20;;;;;;;;;;5099463;27;20172;-52
2023/06/01 10:35:32;;;;;;;0.20;0.20;;;;;;;;;;5100606;28;20047;-51
2023/06/01 10:40:48;;;;;;;0.20;0.20;;;;;;;;;;5129643;27;20266;-50
2023/06/01 10:43:38;;;;;;;0.20;0.20;;;;;;;;;;5124980;27;20149;-51
2023/06/01 10:46:23;;;;;;;0.20;0.20;;;;;;;;;;5107168;27;20411;-52
2023/06/01 10:48:51;;;;;;;0.40;0.40;;;;;;;;;;5114728;27;20074;-52
2023/06/01 10:51:18;;;;;;;0.20;0.20;;;;;;;;;;5106961;27;20135;-50
2023/06/01 10:53:44;;;;;;;0.20;0.20;;;;;;;;;;5119927;27;20035;-50
2023/06/01 10:56:18;;;;;;;0.65;0.22;;;;;;;;;;5128307;27;20114;-51
2023/06/01 10:58:43;;;;;;;0.20;0.20;;;;;;;;;;5129769;27;20058;-49
2023/06/01 11:01:10;;;;;;;0.20;0.20;;;;;;;;;;5139648;27;20291;-52
2023/06/01 11:03:44;;;;;;;0.20;0.20;;;;;;;;;;5117927;27;20189;-54
2023/06/01 11:06:22;;;;;;;0.20;0.20;;;;;;;;;;5138701;27;20398;-53
2023/06/01 11:08:50;;;;;;;0.10;0.10;;;;;;;;;;5144044;27;20400;-48
2023/06/01 11:11:16;;;;;;;0.10;0.10;;;;;;;;;;5111223;27;20039;-52
2023/06/01 11:13:43;;;;;;;0.20;0.20;;;;;;;;;;5134645;27;20592;-51
2023/06/01 11:16:14;;;;;;;0.20;0.20;;;;;;;;;;5127336;27;20046;-49
2023/06/01 11:21:17;;;;;;;0.10;0.10;;;;;;;;;;5148000;27;20531;-52
2023/06/01 11:23:44;;;;;;;0.20;0.20;;;;;;;;;;5097717;27;20115;-52
2023/06/01 11:26:12;;;;;;;0.20;0.20;;;;;;;;;;5113104;27;20524;-49
2023/06/01 11:28:38;;;;;;;0.20;0.20;;;;;;;;;;5108613;27;20046;-50
2023/06/01 11:31:08;;;;;;;0.20;0.20;;;;;;;;;;5105340;27;20081;-52
2023/06/01 11:33:35;;;;;;;0.15;0.15;;;;;;;;;;5101256;27;20043;-49
2023/06/01 11:36:04;;;;;;;0.10;0.10;;;;;;;;;;5107572;27;20858;-53
2023/06/01 11:38:32;;;;;;;0.20;0.20;;;;;;;;;;5109879;27;20058;-48
2023/06/01 11:41:01;;;;;;;0.10;0.10;;;;;;;;;;5113768;27;20043;-48
2023/06/01 11:43:29;;;;;;;0.20;0.20;;;;;;;;;;5112946;27;20062;-49
2023/06/01 11:46:10;;;;;;;0.20;0.20;;;;;;;;;;5113169;27;20094;-48
2023/06/01 11:48:43;;;;;;;0.20;0.20;;;;;;;;;;5115290;27;20481;-50
2023/06/01 11:51:08;;;;;;;0.20;0.20;;;;;;;;;;5112861;27;20062;-48
2023/06/01 11:53:34;;;;;;;0.20;0.20;;;;;;;;;;5115745;27;20043;-51
2023/06/01 11:55:59;;;;;;;0.20;0.20;;;;;;;;;;5115494;27;20115;-48
2023/06/01 11:58:26;;;;;;;0.20;0.20;;;;;;;;;;5115187;27;20442;-52
2023/06/01 12:00:53;;;;;;;0.20;0.20;;;;;;;;;;5113179;27;20518;-50
2023/06/01 12:03:18;;;;;;;0.40;0.40;;;;;;;;;;5097567;27;20058;-49
2023/06/01 12:05:45;;;;;;;0.20;0.20;;;;;;;;;;5117072;27;20069;-51
2023/06/01 12:08:20;;;;;;;0.20;0.20;;;;;;;;;;5117315;27;20066;-50
2023/06/01 12:10:47;;;;;;;0.20;0.20;;;;;;;;;;5117935;27;20063;-51
2023/06/01 12:13:13;;;;;;;0.20;0.20;;;;;;;;;;5117692;27;20051;-51
2023/06/01 12:15:39;;;;;;;0.20;0.20;;;;;;;;;;5117326;27;20054;-50
2023/06/01 12:18:04;;;;;;;0.20;0.20;;;;;;;;;;5114686;27;20039;-52
2023/06/01 12:20:46;;;;;;;0.20;0.20;;;;;;;;;;5116064;27;20082;-49
2023/06/01 12:23:15;;;;;;;0.20;0.20;;;;;;;;;;5120955;27;20047;-49
2023/06/01 12:25:41;;;;;;;;;;;;;;;;;;5122317;27;20050;-51
2023/06/01 12:28:09;;;;;;;0.20;0.20;;;;;;;;;;5110468;27;20413;-51
2023/06/01 12:30:35;;;;;;;0.20;0.20;;;;;;;;;;5106859;27;20039;-49
2023/06/01 12:33:01;;;;;;;0.20;0.20;;;;;;;;;;5085711;28;20138;-53
2023/06/01 12:35:26;;;;;;;0.20;0.20;;;;;;;;;;5083344;28;20137;-51
2023/06/01 12:38:09;;;;;;;0.20;0.20;;;;;;;;;;5091614;28;20069;-49
2023/06/01 12:40:36;;;;;;;0.20;0.20;;;;;;;;;;5070536;28;20486;-48
2023/06/01 12:43:04;;;;;;;0.20;0.20;;;;;;;;;;5085558;28;20503;-52
2023/06/01 12:45:37;;;;;;;0.20;0.20;;;;;;;;;;5097310;28;20075;-52
2023/06/01 12:48:03;;;;;;;0.10;0.10;;;;;;;;;;5081976;28;20039;-49
2023/06/01 12:50:29;;;;;;;0.20;0.20;;;;;;;;;;5109251;28;20388;-51
2023/06/01 12:52:54;;;;;;;0.20;0.20;;;;;;;;;;5098772;28;20132;-50
2023/06/01 12:55:20;;;;;;;0.20;0.20;;;;;;;;;;5094111;28;20058;-50
2023/06/01 12:57:52;;;;;;;0.10;0.10;;;;;;;;;;5105451;28;20042;-50
2023/06/01 13:00:19;;;;;;;0.20;0.20;;;;;;;;;;5099991;28;20044;-47
2023/06/01 13:02:50;;;;;;;0.20;0.20;;;;;;;;;;5117625;27;20602;-49
2023/06/01 13:05:17;;;;;;;0.20;0.20;;;;;;;;;;5097412;28;20136;-51
2023/06/01 13:07:42;;;;;;;0.20;0.20;;;;;;;;;;5091434;28;20089;-49
2023/06/01 13:10:10;;;;;;;0.10;0.10;;;;;;;;;;5081174;28;20051;-49
2023/06/01 13:12:36;;;;;;;0.20;0.20;;;;;;;;;;5101085;28;20271;-47
2023/06/01 13:15:02;;;;;;;0.20;0.20;;;;;;;;;;5085103;28;20054;-47
2023/06/01 13:17:28;;;;;;;0.20;0.20;;;;;;;;;;5108054;28;20410;-49
2023/06/01 13:19:54;;;;;;;0.20;0.20;;;;;;;;;;5096304;28;20499;-48
2023/06/01 13:22:20;;;;;;;0.20;0.20;;;;;;;;;;5114358;28;20490;-50
2023/06/01 13:24:46;;;;;;;0.20;0.20;;;;;;;;;;5111966;28;20043;-50
2023/06/01 13:27:28;;;;;;;0.20;0.20;;;;;;;;;;5110417;28;20099;-49
2023/06/01 13:29:53;;;;;;;0.20;0.20;;;;;;;;;;5108453;28;20051;-49
2023/06/01 13:32:19;;;;;;;0.20;0.20;;;;;;;;;;5107746;28;20054;-53
2023/06/01 13:34:45;;;;;;;0.30;0.30;;;;;;;;;;5107515;27;20086;-48
2023/06/01 13:37:10;;;;;;;0.20;0.20;;;;;;;;;;5105033;27;20040;-46
2023/06/01 13:39:36;;;;;;;0.20;0.20;;;;;;;;;;5111620;28;20108;-49
2023/06/01 13:42:02;;;;;;;0.20;0.20;;;;;;;;;;5109384;27;20632;-46
2023/06/01 13:44:28;;;;;;;0.20;0.20;;;;;;;;;;5110049;28;20035;-50
2023/06/01 13:46:53;;;;;;;0.20;0.20;;;;;;;;;;5111885;28;20043;-50
2023/06/01 13:49:19;;;;;;;0.20;0.20;;;;;;;;;;5110507;28;20546;-51
2023/06/01 13:51:44;;;;;;;0.20;0.20;;;;;;;;;;5106091;27;20124;-50
2023/06/01 13:54:12;;;;;;;0.17;0.17;;;;;;;;;;5110159;28;20047;-49
2023/06/01 13:56:38;;;;;;;0.10;0.10;;;;;;;;;;5104147;27;20051;-52
2023/06/01 13:59:04;;;;;;;0.43;0.43;;;;;;;;;;5118590;27;20504;-49
2023/06/01 14:01:30;;;;;;;0.20;0.20;;;;;;;;;;5115256;27;20062;-53
2023/06/01 14:03:55;;;;;;;0.20;0.20;;;;;;;;;;5115357;27;20039;-52
2023/06/01 14:06:21;;;;;;;0.20;0.20;;;;;;;;;;5114863;28;20081;-49
2023/06/01 14:08:48;;;;;;;0.20;0.20;;;;;;;;;;5113498;27;20061;-49
2023/06/01 14:11:14;;;;;;;0.10;0.10;;;;;;;;;;5099797;27;20052;-49
2023/06/01 14:13:39;;;;;;;0.20;0.20;;;;;;;;;;5103869;28;20438;-52
2023/06/01 14:16:05;;;;;;;0.20;0.20;;;;;;;;;;5114949;28;20133;-51
2023/06/01 14:18:31;;;;;;;0.17;0.17;;;;;;;;;;5114500;28;20535;-49
2023/06/01 14:20:58;;;;;;;0.20;0.20;;;;;;;;;;5113622;28;20042;-48
2023/06/01 14:23:24;;;;;;;0.10;0.10;;;;;;;;;;5114066;28;20427;-50
2023/06/01 14:25:49;;;;;;;0.20;0.20;;;;;;;;;;5111637;28;20383;-49
2023/06/01 14:28:15;;;;;;;0.20;0.20;;;;;;;;;;5112190;28;20395;-51
2023/06/01 14:30:40;;;;;;;0.20;0.20;;;;;;;;;;5113849;28;20083;-47
2023/06/01 14:33:06;;;;;;;0.20;0.20;;;;;;;;;;5110343;28;20052;-49
2023/06/01 14:35:33;;;;;;;0.20;0.20;;;;;;;;;;5092017;28;20055;-50
2023/06/01 14:37:58;;;;;;;0.30;0.30;;;;;;;;;;5092347;28;20303;-51
2023/06/01 14:40:24;;;;;;;0.20;0.20;;;;;;;;;;5102422;27;20062;-49
2023/06/01 14:42:50;;;;;;;0.20;0.20;;;;;;;;;;5093048;28;20538;-50
2023/06/01 14:45:15;;;;;;;0.10;0.10;;;;;;;;;;5111785;28;20035;-48
2023/06/01 14:47:41;;;;;;;0.20;0.20;;;;;;;;;;5111123;28;20054;-50